createdAt,value
2019-04-29T00:01:09.491Z,4.30
2019-04-29T00:03:36.806Z,4.20
2019-04-29T00:06:04.472Z,4.20
2019-04-29T00:08:31.716Z,4.10
2019-04-29T00:10:59.146Z,4.20
2019-04-29T00:13:26.455Z,4.10
2019-04-29T00:16:16.237Z,4.00
2019-04-29T00:19:03.363Z,3.90
2019-04-29T00:21:31.127Z,3.90
2019-04-29T00:24:04.111Z,3.90
2019-04-29T00:26:28.031Z,3.90
2019-04-29T00:28:55.479Z,4.00
2019-04-29T00:31:22.842Z,4.00
2019-04-29T00:33:50.123Z,4.00
2019-04-29T00:36:19.866Z,3.90
2019-04-29T00:39:00.139Z,3.70
2019-04-29T00:41:59.492Z,3.70
2019-04-29T00:44:26.988Z,3.80
2019-04-29T00:46:54.503Z,3.80
2019-04-29T00:49:22.067Z,4.00
2019-04-29T00:51:49.348Z,3.90
2019-04-29T00:54:24.208Z,3.60
2019-04-29T00:56:51.473Z,3.60
2019-04-29T00:59:18.781Z,3.40
2019-04-29T01:01:46.474Z,3.30
2019-04-29T01:04:13.772Z,3.30
2019-04-29T01:06:41.142Z,3.30
2019-04-29T01:09:11.210Z,3.20
2019-04-29T01:11:38.491Z,3.10
2019-04-29T01:14:05.810Z,3.20
2019-04-29T01:16:32.933Z,3.20
2019-04-29T01:19:00.309Z,3.10
2019-04-29T01:21:27.675Z,3.00
2019-04-29T01:23:54.954Z,3.00
2019-04-29T01:26:46.711Z,3.00
2019-04-29T01:29:15.316Z,3.00
2019-04-29T01:31:42.810Z,3.00
2019-04-29T01:34:18.594Z,3.00
2019-04-29T01:36:46.315Z,3.00
2019-04-29T01:39:15.424Z,2.90
2019-04-29T01:41:57.229Z,3.00
2019-04-29T01:44:25.764Z,2.90
2019-04-29T01:46:52.929Z,3.00
2019-04-29T01:49:20.079Z,3.00
2019-04-29T01:51:47.454Z,3.10
2019-04-29T01:54:14.701Z,3.00
2019-04-29T01:56:41.953Z,3.10
2019-04-29T01:59:09.123Z,3.10
2019-04-29T02:01:36.620Z,3.10
2019-04-29T02:04:04.302Z,3.20
2019-04-29T02:06:31.668Z,3.10
2019-04-29T02:08:59.022Z,3.00
2019-04-29T02:11:26.405Z,2.90
2019-04-29T02:13:53.612Z,2.90
2019-04-29T02:16:20.883Z,2.90
2019-04-29T02:18:48.116Z,2.90
2019-04-29T02:21:15.581Z,2.90
2019-04-29T02:23:51.631Z,3.00
2019-04-29T02:26:18.876Z,3.10
2019-04-29T02:28:46.163Z,3.10
2019-04-29T02:31:32.131Z,2.90
2019-04-29T02:33:59.295Z,2.80
2019-04-29T02:36:29.976Z,2.80
2019-04-29T02:39:15.602Z,2.60
2019-04-29T02:41:59.441Z,2.60
2019-04-29T02:44:26.712Z,2.80
2019-04-29T02:46:53.971Z,2.80
2019-04-29T02:49:21.179Z,2.80
2019-04-29T02:52:00.550Z,2.80
2019-04-29T02:54:29.032Z,2.80
2019-04-29T02:57:18.929Z,2.90
2019-04-29T02:59:49.638Z,2.90
2019-04-29T03:02:23.994Z,2.90
2019-04-29T03:05:13.339Z,2.80
2019-04-29T03:07:41.141Z,2.90
2019-04-29T03:10:09.223Z,2.90
2019-04-29T03:12:36.672Z,2.90
2019-04-29T03:15:05.304Z,3.00
2019-04-29T03:17:32.863Z,3.00
2019-04-29T03:20:21.426Z,2.90
2019-04-29T03:22:48.961Z,2.90
2019-04-29T03:25:16.333Z,2.80
2019-04-29T03:27:43.712Z,2.80
2019-04-29T03:30:11.687Z,2.80
2019-04-29T03:32:39.055Z,2.70
2019-04-29T03:35:06.844Z,2.70
2019-04-29T03:37:34.086Z,2.80
2019-04-29T03:40:01.520Z,2.70
2019-04-29T03:42:28.885Z,2.60
2019-04-29T03:44:56.346Z,2.60
2019-04-29T03:47:23.788Z,2.70
2019-04-29T03:49:50.948Z,2.60
2019-04-29T03:52:18.135Z,2.60
2019-04-29T03:54:45.304Z,2.40
2019-04-29T03:57:14.309Z,2.40
2019-04-29T03:59:41.643Z,2.50
2019-04-29T04:02:20.192Z,2.50
2019-04-29T04:05:09.956Z,2.40
2019-04-29T04:07:53.598Z,2.50
2019-04-29T04:10:20.970Z,2.60
2019-04-29T04:12:48.232Z,2.60
2019-04-29T04:15:15.756Z,2.50
2019-04-29T04:17:52.741Z,2.40
2019-04-29T04:20:20.137Z,2.30
2019-04-29T04:22:47.673Z,2.30
2019-04-29T04:25:16.381Z,2.30
2019-04-29T04:27:43.943Z,2.30
2019-04-29T04:30:13.417Z,2.30
2019-04-29T04:32:40.683Z,2.30
2019-04-29T04:35:08.869Z,2.40
2019-04-29T04:37:49.921Z,2.50
2019-04-29T04:40:23.336Z,2.60
2019-04-29T04:42:50.611Z,2.60
2019-04-29T04:45:18.114Z,2.50
2019-04-29T04:47:45.376Z,2.60
2019-04-29T04:50:13.049Z,2.80
2019-04-29T04:52:40.396Z,2.90
2019-04-29T04:55:09.601Z,2.90
2019-04-29T04:57:36.773Z,2.90
2019-04-29T05:00:07.523Z,3.00
2019-04-29T05:02:34.804Z,3.00
2019-04-29T05:05:02.278Z,3.10
2019-04-29T05:07:29.441Z,3.20
2019-04-29T05:09:56.612Z,3.30
2019-04-29T05:12:23.873Z,3.40
2019-04-29T05:14:51.132Z,3.40
2019-04-29T05:17:18.387Z,3.50
2019-04-29T05:19:45.753Z,3.60
2019-04-29T05:22:13.164Z,3.70
2019-04-29T05:24:40.320Z,3.70
2019-04-29T05:27:07.583Z,3.80
2019-04-29T05:29:34.868Z,3.90
2019-04-29T05:32:02.118Z,4.00
2019-04-29T05:34:31.286Z,4.20
2019-04-29T05:37:05.246Z,4.10
2019-04-29T05:39:37.848Z,4.20
2019-04-29T05:42:07.630Z,4.20
2019-04-29T05:44:40.612Z,4.40
2019-04-29T05:47:33.702Z,4.60
2019-04-29T05:50:36.103Z,4.70
2019-04-29T05:53:16.292Z,5.00
2019-04-29T05:55:41.093Z,5.10
2019-04-29T05:58:11.291Z,5.10
2019-04-29T06:00:54.648Z,5.20
2019-04-29T06:03:21.827Z,5.20
2019-04-29T06:05:49.105Z,5.40
2019-04-29T06:08:16.373Z,5.50
2019-04-29T06:10:43.533Z,5.50
2019-04-29T06:13:10.843Z,5.50
2019-04-29T06:15:38.217Z,5.60
2019-04-29T06:18:05.634Z,5.80
2019-04-29T06:20:32.922Z,5.80
2019-04-29T06:23:00.288Z,6.00
2019-04-29T06:25:27.657Z,6.10
2019-04-29T06:27:55.188Z,6.20
2019-04-29T06:30:22.671Z,6.40
2019-04-29T06:32:49.955Z,6.40
2019-04-29T06:35:17.256Z,6.60
2019-04-29T06:37:44.518Z,6.80
2019-04-29T06:40:12.307Z,6.70
2019-04-29T06:42:39.717Z,6.70
2019-04-29T06:45:08.018Z,6.80
2019-04-29T06:47:35.240Z,7.00
2019-04-29T06:50:03.945Z,7.40
2019-04-29T06:52:31.205Z,7.50
2019-04-29T06:54:58.353Z,7.60
2019-04-29T06:57:25.768Z,7.40
2019-04-29T06:59:54.789Z,7.70
2019-04-29T07:02:22.138Z,8.20
2019-04-29T07:05:00.117Z,8.30
2019-04-29T07:07:27.607Z,8.60
2019-04-29T07:09:56.818Z,8.70
2019-04-29T07:12:24.078Z,8.70
2019-04-29T07:14:51.328Z,8.90
2019-04-29T07:17:18.591Z,8.80
2019-04-29T07:19:45.879Z,8.90
2019-04-29T07:22:13.116Z,8.90
2019-04-29T07:24:40.374Z,9.00
2019-04-29T07:27:07.854Z,8.90
2019-04-29T07:29:37.917Z,9.50
2019-04-29T07:32:08.769Z,9.90
2019-04-29T07:34:36.672Z,10.10
2019-04-29T07:37:03.077Z,10.30
2019-04-29T07:39:31.696Z,10.20
2019-04-29T07:41:59.573Z,10.60
2019-04-29T07:44:43.136Z,10.70
2019-04-29T07:47:02.438Z,10.70
2019-04-29T07:49:29.662Z,11.10
2019-04-29T07:51:56.900Z,11.00
2019-04-29T07:54:24.070Z,10.90
2019-04-29T07:56:51.417Z,10.90
2019-04-29T07:59:18.880Z,11.10
2019-04-29T08:01:46.243Z,11.30
2019-04-29T08:04:13.618Z,11.30
2019-04-29T08:06:42.707Z,10.90
2019-04-29T08:09:11.182Z,11.20
2019-04-29T08:11:39.018Z,11.20
2019-04-29T08:14:06.404Z,11.30
2019-04-29T08:16:33.759Z,11.10
2019-04-29T08:19:00.921Z,11.20
2019-04-29T08:21:28.188Z,11.30
2019-04-29T08:23:55.435Z,11.50
2019-04-29T08:26:22.676Z,11.40
2019-04-29T08:28:52.969Z,11.60
2019-04-29T08:31:21.098Z,11.70
2019-04-29T08:33:48.550Z,12.00
2019-04-29T08:36:15.895Z,12.50
2019-04-29T08:38:43.144Z,12.80
2019-04-29T08:41:10.410Z,12.80
2019-04-29T08:43:47.601Z,12.70
2019-04-29T08:46:19.003Z,12.30
2019-04-29T08:48:46.369Z,12.60
2019-04-29T08:51:13.531Z,13.00
2019-04-29T08:53:40.912Z,13.20
2019-04-29T08:56:10.338Z,13.60
2019-04-29T08:58:39.373Z,14.00
2019-04-29T09:01:06.841Z,14.40
2019-04-29T09:03:40.429Z,14.50
2019-04-29T09:06:06.053Z,14.70
2019-04-29T09:08:34.466Z,14.70
2019-04-29T09:11:01.803Z,14.60
2019-04-29T09:13:45.316Z,14.40
2019-04-29T09:16:12.812Z,14.60
2019-04-29T09:18:40.196Z,14.90
2019-04-29T09:21:07.458Z,14.50
2019-04-29T09:23:35.764Z,14.90
2019-04-29T09:26:18.692Z,14.80
2019-04-29T09:28:45.899Z,14.90
2019-04-29T09:31:13.570Z,14.90
2019-04-29T09:33:44.262Z,15.20
2019-04-29T09:36:13.862Z,15.80
2019-04-29T09:38:39.532Z,15.40
2019-04-29T09:41:16.287Z,15.80
2019-04-29T09:44:03.590Z,15.70
2019-04-29T09:46:34.586Z,16.20
2019-04-29T09:49:00.193Z,16.40
2019-04-29T09:51:29.366Z,16.60
2019-04-29T09:53:57.774Z,16.70
2019-04-29T09:56:25.171Z,17.10
2019-04-29T09:59:12.103Z,17.20
2019-04-29T10:01:50.403Z,17.10
2019-04-29T10:04:30.182Z,17.60
2019-04-29T10:06:57.764Z,17.30
2019-04-29T10:09:25.287Z,17.50
2019-04-29T10:11:52.564Z,17.30
2019-04-29T10:14:20.051Z,17.20
2019-04-29T10:17:26.949Z,18.10
2019-04-29T10:20:02.279Z,17.50
2019-04-29T10:22:29.770Z,17.90
2019-04-29T10:24:57.139Z,17.00
2019-04-29T10:27:24.415Z,17.40
2019-04-29T10:29:55.248Z,17.60
2019-04-29T10:32:24.697Z,17.40
2019-04-29T10:34:52.183Z,18.00
2019-04-29T10:37:23.217Z,17.30
2019-04-29T10:40:11.496Z,17.80
2019-04-29T10:43:00.961Z,18.20
2019-04-29T10:46:06.519Z,17.70
2019-04-29T10:48:40.714Z,18.40
2019-04-29T10:51:08.802Z,17.90
2019-04-29T10:53:36.452Z,18.30
2019-04-29T10:56:05.753Z,18.20
2019-04-29T10:58:35.674Z,18.40
2019-04-29T11:02:17.042Z,18.70
2019-04-29T11:04:46.065Z,18.80
2019-04-29T11:07:26.601Z,18.50
2019-04-29T11:09:55.802Z,19.10
2019-04-29T11:12:23.370Z,18.50
2019-04-29T11:14:50.855Z,18.90
2019-04-29T11:17:21.785Z,18.90
2019-04-29T11:19:49.056Z,19.10
2019-04-29T11:22:18.623Z,19.20
2019-04-29T11:25:04.631Z,19.40
2019-04-29T11:27:37.525Z,19.60
2019-04-29T11:30:10.689Z,20.40
2019-04-29T11:32:43.385Z,20.70
2019-04-29T11:35:28.490Z,21.50
2019-04-29T11:37:56.229Z,21.20
2019-04-29T11:40:26.077Z,21.10
2019-04-29T11:42:53.200Z,21.40
2019-04-29T11:45:20.682Z,20.60
2019-04-29T11:47:47.955Z,21.00
2019-04-29T11:50:26.898Z,21.60
2019-04-29T11:52:55.657Z,21.90
2019-04-29T11:55:23.209Z,22.20
2019-04-29T11:57:55.515Z,22.90
2019-04-29T12:00:52.045Z,22.90
2019-04-29T12:03:22.131Z,22.60
2019-04-29T12:05:53.215Z,21.10
2019-04-29T12:08:20.612Z,21.20
2019-04-29T12:11:05.655Z,21.80
2019-04-29T12:13:28.308Z,20.90
2019-04-29T12:16:05.723Z,21.20
2019-04-29T12:18:38.293Z,20.60
2019-04-29T12:21:31.091Z,20.90
2019-04-29T12:24:00.939Z,20.90
2019-04-29T12:26:29.374Z,20.80
2019-04-29T12:28:56.827Z,21.20
2019-04-29T12:31:37.270Z,20.60
2019-04-29T12:34:26.650Z,20.20
2019-04-29T12:36:56.441Z,19.80
2019-04-29T12:39:43.293Z,20.70
2019-04-29T12:42:35.640Z,20.50
2019-04-29T12:45:20.087Z,20.00
2019-04-29T12:47:47.349Z,20.10
2019-04-29T12:50:17.455Z,19.60
2019-04-29T12:52:44.116Z,20.00
2019-04-29T12:55:20.160Z,19.60
2019-04-29T12:57:42.929Z,19.60
2019-04-29T13:00:14.010Z,19.60
2019-04-29T13:03:06.607Z,19.90
2019-04-29T13:06:02.618Z,19.40
2019-04-29T13:08:34.349Z,19.40
2019-04-29T13:11:03.256Z,19.40
2019-04-29T13:13:30.601Z,19.20
2019-04-29T13:16:20.100Z,19.00
2019-04-29T13:19:11.527Z,18.80
2019-04-29T13:21:29.490Z,18.70
2019-04-29T13:24:12.586Z,18.20
2019-04-29T13:26:28.366Z,18.40
2019-04-29T13:29:00.631Z,18.10
2019-04-29T13:31:37.458Z,18.10
2019-04-29T13:33:56.166Z,18.00
2019-04-29T13:36:25.868Z,17.70
2019-04-29T13:38:52.954Z,17.50
2019-04-29T13:41:24.457Z,16.80
2019-04-29T13:43:52.107Z,15.70
2019-04-29T13:46:38.176Z,14.70
2019-04-29T13:49:25.261Z,14.60
2019-04-29T13:51:53.244Z,14.40
2019-04-29T13:54:20.692Z,14.00
2019-04-29T13:56:55.932Z,13.50
2019-04-29T13:59:23.404Z,13.40
2019-04-29T14:02:05.611Z,13.40
2019-04-29T14:04:33.366Z,13.10
2019-04-29T14:07:19.934Z,13.10
2019-04-29T14:09:50.185Z,13.00
2019-04-29T14:12:47.322Z,13.10
2019-04-29T14:14:48.101Z,13.00
2019-04-29T14:17:25.784Z,13.00
2019-04-29T14:19:45.211Z,13.00
2019-04-29T14:22:21.954Z,13.00
2019-04-29T14:24:41.891Z,12.90
2019-04-29T14:27:23.473Z,13.00
2019-04-29T14:29:38.662Z,13.00
2019-04-29T14:32:18.257Z,13.10
2019-04-29T14:34:54.987Z,13.20
2019-04-29T14:37:25.221Z,13.30
2019-04-29T14:39:51.480Z,13.20
2019-04-29T14:42:57.144Z,13.10
2019-04-29T14:45:39.703Z,13.10
2019-04-29T14:48:42.616Z,13.20
2019-04-29T14:51:10.355Z,13.20
2019-04-29T14:53:41.044Z,13.10
2019-04-29T14:56:10.708Z,13.10
2019-04-29T14:58:38.229Z,13.10
2019-04-29T15:01:37.420Z,13.10
2019-04-29T15:04:17.770Z,13.10
2019-04-29T15:06:38.648Z,13.10
2019-04-29T15:09:16.826Z,13.10
2019-04-29T15:11:58.938Z,13.20
2019-04-29T15:14:47.581Z,13.20
2019-04-29T15:17:32.714Z,13.30
2019-04-29T15:20:07.550Z,13.30
2019-04-29T15:22:36.008Z,13.30
2019-04-29T15:25:05.516Z,13.40
2019-04-29T15:27:36.437Z,13.30
2019-04-29T15:30:05.480Z,13.30
2019-04-29T15:32:32.850Z,13.20
2019-04-29T15:35:00.352Z,13.20
2019-04-29T15:37:28.866Z,13.10
2019-04-29T15:39:58.362Z,13.00
2019-04-29T15:42:25.658Z,13.00
2019-04-29T15:44:55.933Z,12.90
2019-04-29T15:47:22.102Z,12.70
2019-04-29T15:49:49.338Z,12.50
2019-04-29T15:52:16.723Z,12.40
2019-04-29T15:54:50.843Z,12.10
2019-04-29T15:57:15.974Z,12.00
2019-04-29T15:59:48.815Z,11.90
2019-04-29T16:02:13.098Z,11.70
2019-04-29T16:04:47.314Z,11.60
2019-04-29T16:07:37.461Z,11.50
2019-04-29T16:10:25.825Z,11.50
2019-04-29T16:12:56.675Z,11.40
2019-04-29T16:15:24.353Z,11.40
2019-04-29T16:17:52.279Z,11.30
2019-04-29T16:20:19.664Z,11.30
2019-04-29T16:22:47.338Z,11.20
2019-04-29T16:25:14.712Z,11.20
2019-04-29T16:27:48.895Z,11.20
2019-04-29T16:30:11.797Z,11.20
2019-04-29T16:32:40.863Z,11.20
2019-04-29T16:35:09.135Z,11.20
2019-04-29T16:37:37.020Z,11.10
2019-04-29T16:40:09.103Z,11.10
2019-04-29T16:42:43.801Z,11.00
2019-04-29T16:45:14.209Z,11.00
2019-04-29T16:47:47.395Z,11.10
2019-04-29T16:50:14.225Z,11.00
2019-04-29T16:52:44.463Z,10.90
2019-04-29T16:55:11.309Z,10.90
2019-04-29T16:57:40.221Z,10.90
2019-04-29T17:00:13.949Z,10.80
2019-04-29T17:02:42.009Z,10.80
2019-04-29T17:05:10.406Z,10.70
2019-04-29T17:07:38.019Z,10.70
2019-04-29T17:10:33.618Z,10.70
2019-04-29T17:13:01.089Z,10.80
2019-04-29T17:15:28.973Z,10.80
2019-04-29T17:17:56.253Z,10.80
2019-04-29T17:20:26.959Z,10.90
2019-04-29T17:22:54.271Z,10.80
2019-04-29T17:25:21.840Z,10.70
2019-04-29T17:28:11.540Z,10.70
2019-04-29T17:31:12.323Z,10.80
2019-04-29T17:33:49.449Z,10.80
2019-04-29T17:36:13.992Z,10.70
2019-04-29T17:38:41.308Z,10.50
2019-04-29T17:41:16.006Z,10.50
2019-04-29T17:44:14.482Z,10.50
2019-04-29T17:46:56.935Z,10.50
2019-04-29T17:49:38.236Z,10.40
2019-04-29T17:52:12.400Z,10.40
2019-04-29T17:54:42.527Z,10.40
2019-04-29T17:57:30.608Z,10.30
2019-04-29T18:00:21.826Z,10.20
2019-04-29T18:03:09.259Z,10.20
2019-04-29T18:05:57.705Z,10.20
2019-04-29T18:08:32.338Z,10.20
2019-04-29T18:11:06.467Z,10.20
2019-04-29T18:13:30.228Z,10.20
2019-04-29T18:16:03.336Z,10.20
2019-04-29T18:18:47.345Z,10.30
2019-04-29T18:21:37.188Z,10.20
2019-04-29T18:24:20.150Z,10.10
2019-04-29T18:26:52.764Z,10.10
2019-04-29T18:29:20.802Z,10.00
2019-04-29T18:31:48.470Z,10.00
2019-04-29T18:34:16.900Z,9.90
2019-04-29T18:36:45.808Z,9.90
2019-04-29T18:39:20.173Z,9.80
2019-04-29T18:41:48.265Z,10.00
2019-04-29T18:44:20.350Z,10.10
2019-04-29T18:46:53.416Z,10.00
2019-04-29T18:49:20.597Z,10.00
2019-04-29T18:51:50.092Z,9.90
2019-04-29T18:54:17.935Z,9.90
2019-04-29T18:56:45.806Z,9.90
2019-04-29T18:59:13.593Z,9.90
2019-04-29T19:01:41.370Z,9.90
2019-04-29T19:04:20.652Z,9.90
2019-04-29T19:06:59.376Z,9.90
2019-04-29T19:09:27.177Z,9.90
2019-04-29T19:11:55.309Z,9.80
2019-04-29T19:14:26.865Z,9.80
2019-04-29T19:17:00.106Z,9.70
2019-04-29T19:19:25.230Z,9.80
2019-04-29T19:21:53.094Z,9.80
2019-04-29T19:24:20.767Z,9.80
2019-04-29T19:26:53.939Z,9.80
2019-04-29T19:29:24.706Z,9.80
2019-04-29T19:31:52.670Z,9.80
2019-04-29T19:34:20.574Z,9.70
2019-04-29T19:36:50.799Z,9.70
2019-04-29T19:39:21.839Z,9.70
2019-04-29T19:41:51.732Z,9.80
2019-04-29T19:44:19.700Z,9.70
2019-04-29T19:46:50.127Z,9.70
2019-04-29T19:49:18.574Z,9.70
2019-04-29T19:51:47.467Z,9.70
2019-04-29T19:54:16.918Z,9.70
2019-04-29T19:56:44.665Z,9.70
2019-04-29T19:59:14.848Z,9.60
2019-04-29T20:01:42.265Z,9.70
2019-04-29T20:04:31.278Z,9.60
2019-04-29T20:07:05.984Z,9.70
2019-04-29T20:09:32.330Z,9.60
2019-04-29T20:12:12.780Z,9.60
2019-04-29T20:14:37.266Z,9.60
2019-04-29T20:17:27.472Z,9.60
2019-04-29T20:20:06.557Z,9.60
2019-04-29T20:22:37.084Z,9.60
2019-04-29T20:25:06.300Z,9.60
2019-04-29T20:27:35.605Z,9.60
2019-04-29T20:30:16.492Z,9.60
2019-04-29T20:32:38.865Z,9.60
2019-04-29T20:35:08.898Z,9.60
2019-04-29T20:37:36.495Z,9.60
2019-04-29T20:40:05.760Z,9.60
2019-04-29T20:42:33.278Z,9.60
2019-04-29T20:45:00.753Z,9.60
2019-04-29T20:47:37.552Z,9.60
2019-04-29T20:49:57.496Z,9.60
2019-04-29T20:52:36.249Z,9.60
2019-04-29T20:55:07.365Z,9.60
2019-04-29T20:57:35.728Z,9.60
2019-04-29T21:00:06.185Z,9.60
2019-04-29T21:02:35.362Z,9.60
2019-04-29T21:05:03.173Z,9.60
2019-04-29T21:07:30.703Z,9.60
2019-04-29T21:09:59.966Z,9.60
2019-04-29T21:12:42.192Z,9.60
2019-04-29T21:15:16.332Z,9.60
2019-04-29T21:17:45.320Z,9.60
2019-04-29T21:20:12.964Z,9.60
2019-04-29T21:22:40.398Z,9.70
2019-04-29T21:25:07.982Z,9.60
2019-04-29T21:27:35.418Z,9.60
2019-04-29T21:30:03.855Z,9.60
2019-04-29T21:32:35.330Z,9.60
2019-04-29T21:35:21.279Z,9.60
2019-04-29T21:38:23.449Z,9.50
2019-04-29T21:40:56.235Z,9.60
2019-04-29T21:43:26.169Z,9.50
2019-04-29T21:45:55.512Z,9.60
2019-04-29T21:48:25.689Z,9.50
2019-04-29T21:50:51.996Z,9.50
2019-04-29T21:53:19.397Z,9.60
2019-04-29T21:55:46.663Z,9.50
2019-04-29T21:58:13.826Z,9.60
2019-04-29T22:00:41.434Z,9.50
2019-04-29T22:03:08.681Z,9.60
2019-04-29T22:05:36.608Z,9.50
2019-04-29T22:08:04.171Z,9.50
2019-04-29T22:10:31.421Z,9.50
2019-04-29T22:13:02.279Z,9.60
2019-04-29T22:15:32.855Z,9.60
2019-04-29T22:18:01.338Z,9.60
2019-04-29T22:20:26.960Z,9.60
2019-04-29T22:22:55.871Z,9.60
2019-04-29T22:25:23.317Z,9.60
2019-04-29T22:27:50.592Z,9.60
2019-04-29T22:30:18.878Z,9.60
2019-04-29T22:32:51.884Z,9.60
2019-04-29T22:35:16.722Z,9.60
2019-04-29T22:37:45.471Z,9.60
2019-04-29T22:40:17.004Z,9.60
2019-04-29T22:43:08.387Z,9.60
2019-04-29T22:45:33.983Z,9.60
2019-04-29T22:48:14.230Z,9.60
2019-04-29T22:50:29.224Z,9.60
2019-04-29T22:52:57.151Z,9.60
2019-04-29T22:55:25.304Z,9.60
2019-04-29T22:57:52.751Z,9.60
2019-04-29T23:00:26.233Z,9.60
2019-04-29T23:02:52.302Z,9.60
2019-04-29T23:05:23.527Z,9.60
2019-04-29T23:07:52.932Z,9.60
2019-04-29T23:10:24.016Z,9.50
2019-04-29T23:12:49.312Z,9.50
2019-04-29T23:15:22.685Z,9.60
2019-04-29T23:17:47.429Z,9.60
2019-04-29T23:20:55.279Z,9.60
2019-04-29T23:23:33.738Z,9.50
2019-04-29T23:25:59.859Z,9.50
2019-04-29T23:28:28.386Z,9.50
2019-04-29T23:30:56.278Z,9.60
2019-04-29T23:33:25.901Z,9.60
2019-04-29T23:35:52.709Z,9.60
2019-04-29T23:38:20.087Z,9.60
2019-04-29T23:40:49.686Z,9.60
2019-04-29T23:43:19.912Z,9.60
2019-04-29T23:45:45.752Z,9.60
2019-04-29T23:48:13.146Z,9.60
2019-04-29T23:50:40.557Z,9.50
2019-04-29T23:53:07.905Z,9.60
2019-04-29T23:55:35.660Z,9.60
2019-04-29T23:58:15.331Z,9.60
